Time;durP1;ratioP1;P1;durP2;ratioP2;P2;SDS_P1;SDS_P2;PMS_P1;PMS_P2;Temp;Humidity;BMP_temperature;BMP_pressure;BME280_temperature;BME280_humidity;BME280_pressure;Samples;Min_cycle;Max_cycle;Signal;HPM_P1;HPM_P2
2021/08/17 00:00:04;;;;;;;3.20;0.93;;;14.30;75.80;;;;;;2040833;29;20043;-92
2021/08/17 00:01:04;;;;;;;3.42;0.98;;;14.30;75.90;;;;;;2032832;29;20055;-91
2021/08/17 00:02:05;;;;;;;3.72;1.10;;;14.30;76.00;;;;;;2025374;29;20048;-91
2021/08/17 00:03:05;;;;;;;4.15;1.08;;;14.20;76.00;;;;;;2033204;29;20032;-91
2021/08/17 00:04:06;;;;;;;3.03;1.10;;;14.20;76.00;;;;;;2048804;29;20043;-91
2021/08/17 00:05:08;;;;;;;3.92;1.15;;;14.20;76.10;;;;;;2048630;29;20039;-91
2021/08/17 00:06:08;;;;;;;4.03;1.20;;;14.20;76.10;;;;;;2039191;28;20146;-91
2021/08/17 00:07:09;;;;;;;3.63;1.00;;;14.20;76.20;;;;;;2036385;29;20040;-91
2021/08/17 00:08:10;;;;;;;3.70;1.17;;;14.20;76.80;;;;;;2037292;29;20051;-91
2021/08/17 00:09:10;;;;;;;4.40;1.10;;;14.20;76.20;;;;;;2049047;28;20569;-91
2021/08/17 00:10:12;;;;;;;4.75;1.02;;;14.10;76.20;;;;;;2032631;29;20127;-91
2021/08/17 00:11:13;;;;;;;3.53;1.13;;;14.10;76.30;;;;;;2040981;28;20036;-91
2021/08/17 00:12:13;;;;;;;2.63;1.10;;;14.10;76.40;;;;;;2048359;28;20043;-91
2021/08/17 00:13:14;;;;;;;2.78;1.10;;;14.10;76.40;;;;;;2040136;29;20036;-91
2021/08/17 00:14:15;;;;;;;2.90;1.10;;;14.10;76.50;;;;;;2034409;29;20044;-91
2021/08/17 00:15:16;;;;;;;3.53;1.20;;;14.10;76.60;;;;;;2026644;29;20114;-91
2021/08/17 00:16:17;;;;;;;3.75;1.13;;;14.10;76.70;;;;;;2034689;29;20052;-91
2021/08/17 00:17:18;;;;;;;5.72;1.25;;;14.10;76.70;;;;;;2041227;28;20043;-90
2021/08/17 00:18:20;;;;;;;3.85;1.00;;;14.00;76.70;;;;;;2041882;29;20115;-91
2021/08/17 00:19:21;;;;;;;3.97;1.02;;;14.00;76.70;;;;;;2050564;28;20420;-90
2021/08/17 00:20:23;;;;;;;3.17;1.00;;;14.00;76.80;;;;;;2053755;28;20043;-90
2021/08/17 00:21:24;;;;;;;4.57;1.20;;;14.00;76.80;;;;;;2050735;28;20437;-90
2021/08/17 00:22:25;;;;;;;4.47;1.15;;;14.00;76.80;;;;;;2058265;28;20054;-91
2021/08/17 00:23:25;;;;;;;4.53;1.30;;;14.00;76.90;;;;;;2047485;28;20118;-91
2021/08/17 00:24:26;;;;;;;3.80;1.17;;;14.00;76.90;;;;;;2033817;29;20044;-90
2021/08/17 00:25:27;;;;;;;3.65;1.02;;;14.00;76.90;;;;;;2035650;29;20036;-91
2021/08/17 00:26:27;;;;;;;4.55;1.25;;;13.90;76.90;;;;;;2041144;29;20039;-91
2021/08/17 00:27:28;;;;;;;4.45;1.17;;;14.00;76.90;;;;;;2041183;29;20572;-91
2021/08/17 00:28:29;;;;;;;5.40;1.23;;;14.00;76.90;;;;;;2033439;29;20146;-90
2021/08/17 00:29:29;;;;;;;4.00;1.20;;;14.00;76.90;;;;;;2043332;29;20043;-91
2021/08/17 00:30:30;;;;;;;5.22;1.10;;;13.90;76.90;;;;;;2050216;29;20039;-91
2021/08/17 00:31:31;;;;;;;3.72;1.00;;;14.00;76.90;;;;;;2050353;28;20497;-91
2021/08/17 00:32:32;;;;;;;4.93;1.20;;;14.00;77.00;;;;;;2041863;29;20043;-91
2021/08/17 00:33:33;;;;;;;4.40;1.10;;;13.90;76.90;;;;;;2042346;28;20056;-91
2021/08/17 00:34:33;;;;;;;4.22;1.10;;;14.00;76.90;;;;;;2053506;28;20035;-91
2021/08/17 00:35:36;;;;;;;3.65;1.15;;;13.90;76.90;;;;;;2041914;29;20044;-91
2021/08/17 00:36:37;;;;;;;4.38;1.20;;;13.90;77.00;;;;;;2042209;28;20035;-92
2021/08/17 00:37:38;;;;;;;3.33;1.20;;;13.90;77.00;;;;;;2041207;29;20508;-91
2021/08/17 00:38:40;;;;;;;4.00;1.23;;;13.90;77.00;;;;;;2049374;28;20035;-91
2021/08/17 00:39:40;;;;;;;4.50;1.30;;;14.00;77.10;;;;;;2038286;29;20091;-91
2021/08/17 00:40:41;;;;;;;4.72;1.10;;;14.00;77.10;;;;;;2042042;29;20170;-91
2021/08/17 00:41:42;;;;;;;3.55;1.08;;;13.90;77.10;;;;;;2042473;29;20122;-91
2021/08/17 00:42:46;;;;;;;3.85;1.20;;;13.90;77.10;;;;;;2042301;28;20039;-91
2021/08/17 00:43:47;;;;;;;3.53;1.20;;;13.90;77.20;;;;;;2050387;28;20445;-92
2021/08/17 00:44:49;;;;;;;4.82;1.30;;;13.90;77.20;;;;;;2042263;29;20110;-91
2021/08/17 00:45:50;;;;;;;5.30;1.35;;;13.90;77.20;;;;;;2034629;29;20114;-91
2021/08/17 00:46:57;;;;;;;5.10;1.33;;;13.90;77.20;;;;;;2029301;28;20044;-91
2021/08/17 00:47:58;;;;;;;5.50;1.38;;;13.90;77.90;;;;;;2050861;28;20071;-90
2021/08/17 00:48:59;;;;;;;3.72;1.08;;;13.90;77.30;;;;;;2050011;28;22186;-91
2021/08/17 00:50:00;;;;;;;4.63;1.15;;;13.90;77.30;;;;;;2034164;29;20135;-91
2021/08/17 00:51:00;;;;;;;3.17;1.10;;;13.80;77.30;;;;;;2042237;29;20048;-91
2021/08/17 00:52:03;;;;;;;4.60;1.40;;;13.80;77.30;;;;;;2049698;28;20090;-91
2021/08/17 00:53:04;;;;;;;4.78;1.08;;;13.80;77.30;;;;;;2050779;28;20031;-91
2021/08/17 00:54:06;;;;;;;4.00;1.30;;;13.80;77.30;;;;;;2048973;28;20035;-91
2021/08/17 00:55:09;;;;;;;6.05;1.23;;;13.80;77.30;;;;;;2049451;28;20036;-91
2021/08/17 00:56:10;;;;;;;3.83;1.30;;;13.80;77.40;;;;;;2049087;28;20083;-91
2021/08/17 00:57:12;;;;;;;3.38;0.88;;;13.80;77.40;;;;;;2049690;28;20111;-91
2021/08/17 00:58:12;;;;;;;4.00;1.20;;;13.80;77.40;;;;;;2048845;28;20047;-91
2021/08/17 00:59:13;;;;;;;5.10;1.40;;;13.80;78.10;;;;;;2048723;28;20031;-91
2021/08/17 01:00:15;;;;;;;5.85;1.15;;;13.80;77.40;;;;;;2041671;29;20070;-90
2021/08/17 01:01:15;;;;;;;3.55;1.33;;;13.80;77.40;;;;;;2040210;29;20031;-91
2021/08/17 01:02:16;;;;;;;5.03;1.20;;;13.80;77.40;;;;;;2042063;29;20071;-90
2021/08/17 01:03:18;;;;;;;4.05;1.10;;;13.80;77.30;;;;;;2042085;29;20031;-90
2021/08/17 01:04:19;;;;;;;3.03;1.30;;;13.80;77.40;;;;;;2050253;28;20502;-90
2021/08/17 01:05:23;;;;;;;2.63;1.10;;;13.80;77.40;;;;;;2049921;28;20245;-90
2021/08/17 01:06:26;;;;;;;4.40;1.17;;;13.80;77.40;;;;;;2049226;28;20048;-90
2021/08/17 01:07:28;;;;;;;4.30;1.45;;;13.80;77.40;;;;;;2056326;28;20034;-91
2021/08/17 01:08:29;;;;;;;4.65;1.30;;;13.80;77.40;;;;;;2066023;28;20125;-90
2021/08/17 01:09:30;;;;;;;3.85;1.15;;;13.80;77.40;;;;;;2042028;29;20113;-91
2021/08/17 01:10:31;;;;;;;3.40;1.10;;;13.80;77.30;;;;;;2042264;29;20028;-91
2021/08/17 01:11:31;;;;;;;4.47;1.55;;;13.80;77.30;;;;;;2061204;28;20034;-91
2021/08/17 01:12:38;;;;;;;4.63;1.30;;;13.80;77.30;;;;;;2049875;29;20031;-91
2021/08/17 01:13:39;;;;;;;3.03;1.13;;;13.80;77.40;;;;;;2045007;28;20494;-91
2021/08/17 01:14:40;;;;;;;5.03;1.30;;;13.80;77.30;;;;;;2042145;29;20064;-90
2021/08/17 01:15:41;;;;;;;4.10;1.13;;;13.80;77.40;;;;;;2034236;29;20540;-90
2021/08/17 01:16:42;;;;;;;4.05;1.20;;;13.80;77.40;;;;;;2049020;29;21567;-90
2021/08/17 01:17:44;;;;;;;4.07;1.20;;;13.80;77.40;;;;;;2056647;28;20039;-91
2021/08/17 01:18:45;;;;;;;5.35;1.30;;;13.80;77.40;;;;;;2051148;28;20055;-91
2021/08/17 01:19:46;;;;;;;3.85;1.27;;;13.80;77.40;;;;;;2050902;28;20031;-90
2021/08/17 01:20:51;;;;;;;4.50;1.38;;;13.80;77.40;;;;;;2051378;28;20039;-91
2021/08/17 01:21:52;;;;;;;4.65;1.10;;;13.80;77.40;;;;;;2052139;28;20100;-90
2021/08/17 01:22:53;;;;;;;3.25;1.23;;;13.80;77.30;;;;;;2058905;28;20031;-91
2021/08/17 01:23:54;;;;;;;3.78;1.10;;;13.80;77.30;;;;;;2059168;28;20093;-90
2021/08/17 01:24:55;;;;;;;5.05;1.23;;;13.80;77.30;;;;;;2039652;29;20513;-91
2021/08/17 01:25:55;;;;;;;4.50;1.40;;;13.80;77.30;;;;;;2032738;28;20036;-91
2021/08/17 01:26:56;;;;;;;4.30;1.25;;;13.80;77.30;;;;;;2048991;29;20199;-91
2021/08/17 01:27:57;;;;;;;5.18;1.30;;;13.80;77.30;;;;;;2041827;29;20050;-91
2021/08/17 01:28:58;;;;;;;2.60;1.17;;;13.80;77.30;;;;;;2033856;29;20032;-91
2021/08/17 01:29:59;;;;;;;4.18;1.20;;;13.70;77.30;;;;;;2042004;29;20107;-90
2021/08/17 01:31:05;;;;;;;5.20;1.42;;;13.80;77.30;;;;;;2042280;29;20035;-91
2021/08/17 01:32:06;;;;;;;3.17;1.05;;;13.80;77.40;;;;;;2054410;28;20026;-91
2021/08/17 01:33:07;;;;;;;4.45;1.30;;;13.80;77.40;;;;;;2046931;28;20035;-90
2021/08/17 01:34:07;;;;;;;4.28;1.50;;;13.70;77.30;;;;;;2033538;29;20200;-91
2021/08/17 01:35:08;;;;;;;3.97;1.30;;;13.70;77.30;;;;;;2026221;29;20044;-91
2021/08/17 01:36:09;;;;;;;3.38;1.10;;;13.70;77.30;;;;;;2034220;29;20055;-91
2021/08/17 01:37:10;;;;;;;4.35;1.38;;;13.70;77.30;;;;;;2048551;28;20118;-91
2021/08/17 01:38:10;;;;;;;3.28;1.00;;;13.70;77.40;;;;;;2057201;28;20524;-91
2021/08/17 01:39:11;;;;;;;3.13;1.20;;;13.70;77.40;;;;;;2057577;28;20038;-91
2021/08/17 01:40:13;;;;;;;4.60;1.45;;;13.70;77.40;;;;;;2049412;28;20043;-91
2021/08/17 01:41:14;;;;;;;3.47;1.15;;;13.70;77.40;;;;;;2041892;29;20047;-91
2021/08/17 01:42:16;;;;;;;4.45;1.20;;;13.70;77.50;;;;;;2049189;28;20028;-91
2021/08/17 01:43:17;;;;;;;4.28;1.08;;;13.70;77.50;;;;;;2056557;28;20141;-90
2021/08/17 01:44:18;;;;;;;2.92;1.10;;;13.70;77.50;;;;;;2057486;28;20497;-90
2021/08/17 01:45:20;;;;;;;3.63;1.02;;;13.70;77.50;;;;;;2057011;28;20085;-91
2021/08/17 01:46:21;;;;;;;2.90;1.23;;;13.70;77.50;;;;;;2042396;29;20028;-91
2021/08/17 01:47:22;;;;;;;4.47;1.40;;;13.70;77.50;;;;;;2049519;28;20039;-91
2021/08/17 01:48:28;;;;;;;3.97;1.27;;;13.70;77.50;;;;;;2034837;29;20153;-91
2021/08/17 01:49:28;;;;;;;3.33;0.95;;;13.70;77.70;;;;;;2050091;28;20055;-91
2021/08/17 01:50:29;;;;;;;3.90;1.20;;;13.70;77.60;;;;;;2041008;29;20058;-90
2021/08/17 01:51:30;;;;;;;3.17;1.10;;;13.70;77.70;;;;;;2044197;29;20032;-91
2021/08/17 01:52:32;;;;;;;4.47;1.30;;;13.70;77.70;;;;;;2052633;28;20035;-91
2021/08/17 01:53:33;;;;;;;4.22;1.30;;;13.70;77.70;;;;;;2041583;28;20589;-91
2021/08/17 01:54:34;;;;;;;2.60;1.20;;;13.70;77.70;;;;;;2041136;29;20517;-91
2021/08/17 01:55:35;;;;;;;2.70;1.02;;;13.60;77.70;;;;;;2045005;29;20051;-91
2021/08/17 01:56:35;;;;;;;3.50;1.30;;;13.60;78.30;;;;;;2033368;29;20059;-91
2021/08/17 01:57:37;;;;;;;3.70;1.15;;;13.60;77.80;;;;;;2029989;29;20046;-91
2021/08/17 01:58:39;;;;;;;4.43;1.20;;;13.60;77.80;;;;;;2044744;28;20090;-91
2021/08/17 01:59:39;;;;;;;4.68;1.20;;;13.60;77.90;;;;;;2057817;28;20042;-91
2021/08/17 02:00:43;;;;;;;4.15;1.30;;;13.60;77.90;;;;;;2041468;29;20040;-90
2021/08/17 02:01:44;;;;;;;3.55;1.10;;;13.60;78.00;;;;;;2042069;29;20051;-91
2021/08/17 02:02:44;;;;;;;4.57;1.30;;;13.60;78.00;;;;;;2042918;28;20044;-91
2021/08/17 02:03:45;;;;;;;4.00;1.35;;;13.60;78.10;;;;;;2050041;28;20086;-90
2021/08/17 02:04:46;;;;;;;4.22;1.15;;;13.60;78.00;;;;;;2041790;29;20035;-91
2021/08/17 02:05:46;;;;;;;3.35;1.38;;;13.60;78.10;;;;;;2049757;28;20027;-91
2021/08/17 02:06:47;;;;;;;4.00;1.20;;;13.60;78.10;;;;;;2032634;29;20048;-91
2021/08/17 02:07:51;;;;;;;3.08;1.15;;;13.60;78.10;;;;;;2033964;29;20036;-91
2021/08/17 02:08:52;;;;;;;4.10;1.40;;;13.60;78.20;;;;;;2049997;28;20596;-91
2021/08/17 02:09:53;;;;;;;2.53;1.17;;;13.60;78.20;;;;;;2051661;28;20039;-91
2021/08/17 02:10:54;;;;;;;3.60;1.30;;;13.50;78.30;;;;;;2065533;28;20492;-91
2021/08/17 02:11:54;;;;;;;3.38;1.20;;;13.50;78.30;;;;;;2059271;28;20053;-91
2021/08/17 02:12:55;;;;;;;3.60;1.42;;;13.50;78.30;;;;;;2053896;29;20039;-91
2021/08/17 02:13:56;;;;;;;3.67;1.23;;;13.50;79.00;;;;;;2058740;29;20099;-90
2021/08/17 02:14:56;;;;;;;4.53;1.27;;;13.50;78.40;;;;;;2050887;29;20015;-90
2021/08/17 02:16:00;;;;;;;4.75;1.20;;;13.50;78.40;;;;;;2050680;29;20073;-90
2021/08/17 02:17:00;;;;;;;2.92;1.27;;;13.50;78.50;;;;;;2067672;28;20031;-90
2021/08/17 02:18:01;;;;;;;4.55;1.40;;;13.50;78.50;;;;;;2058832;29;20027;-89
2021/08/17 02:19:02;;;;;;;3.85;1.50;;;13.50;78.50;;;;;;2042817;29;20020;-90
2021/08/17 02:20:04;;;;;;;4.80;1.10;;;13.50;78.50;;;;;;2066836;28;20034;-90
2021/08/17 02:21:05;;;;;;;3.83;1.50;;;13.50;78.50;;;;;;2058657;28;20568;-90
2021/08/17 02:22:06;;;;;;;3.83;1.33;;;13.40;78.50;;;;;;2051392;29;20083;-90
2021/08/17 02:23:07;;;;;;;3.97;1.30;;;13.50;78.60;;;;;;2054414;29;20054;-89
2021/08/17 02:24:07;;;;;;;2.90;1.10;;;13.50;78.60;;;;;;2051374;28;20030;-90
2021/08/17 02:25:09;;;;;;;4.15;1.35;;;13.50;78.70;;;;;;2059193;28;20034;-91
2021/08/17 02:26:09;;;;;;;2.65;1.25;;;13.40;78.70;;;;;;2058387;28;20015;-91
2021/08/17 02:27:10;;;;;;;2.90;1.30;;;13.40;78.60;;;;;;2051177;29;20040;-88
2021/08/17 02:28:11;;;;;;;4.28;1.20;;;13.40;78.70;;;;;;2050980;28;20036;-90
2021/08/17 02:29:11;;;;;;;3.17;1.10;;;13.40;78.80;;;;;;2032474;29;20037;-90
2021/08/17 02:30:12;;;;;;;3.72;1.38;;;13.40;78.80;;;;;;2028095;29;20056;-91
2021/08/17 02:31:13;;;;;;;3.17;1.30;;;13.40;78.80;;;;;;2052558;28;20035;-91
2021/08/17 02:32:13;;;;;;;4.18;1.40;;;13.40;78.80;;;;;;2052072;28;20676;-91
2021/08/17 02:33:15;;;;;;;4.13;1.30;;;13.40;78.80;;;;;;2040531;29;20043;-91
2021/08/17 02:34:16;;;;;;;3.35;1.30;;;13.40;78.90;;;;;;2041644;29;20502;-91
2021/08/17 02:35:16;;;;;;;3.65;1.27;;;13.40;78.90;;;;;;2033131;29;20035;-91
2021/08/17 02:36:17;;;;;;;4.80;1.52;;;13.40;78.90;;;;;;2033863;29;20099;-91
2021/08/17 02:37:18;;;;;;;3.33;1.40;;;13.40;79.00;;;;;;2042581;29;20138;-91
2021/08/17 02:38:18;;;;;;;3.33;1.20;;;13.30;79.00;;;;;;2041457;29;20067;-91
2021/08/17 02:39:19;;;;;;;5.63;1.38;;;13.30;79.00;;;;;;2041516;29;20090;-91
2021/08/17 02:40:20;;;;;;;4.18;1.50;;;13.30;79.00;;;;;;2034647;29;20044;-91
2021/08/17 02:41:20;;;;;;;3.92;1.40;;;13.30;79.10;;;;;;2040602;29;20055;-91
2021/08/17 02:42:21;;;;;;;2.30;1.20;;;13.30;79.10;;;;;;2056416;28;20081;-91
2021/08/17 02:43:25;;;;;;;5.03;1.50;;;13.30;79.10;;;;;;2063759;28;20089;-91
2021/08/17 02:44:25;;;;;;;3.92;1.15;;;13.30;79.10;;;;;;2044614;29;20086;-91
2021/08/17 02:45:26;;;;;;;3.17;1.30;;;13.30;79.10;;;;;;2041874;29;20044;-91
2021/08/17 02:46:27;;;;;;;3.22;1.20;;;13.30;79.20;;;;;;2043298;29;20127;-91
2021/08/17 02:47:28;;;;;;;3.85;1.45;;;13.30;79.20;;;;;;2050190;28;20556;-91
2021/08/17 02:48:29;;;;;;;3.25;1.15;;;13.30;79.20;;;;;;2054144;28;20042;-91
2021/08/17 02:49:32;;;;;;;5.22;1.50;;;13.30;79.30;;;;;;2055400;28;20099;-90
2021/08/17 02:50:33;;;;;;;4.03;1.20;;;13.30;79.30;;;;;;2058240;28;20043;-91
2021/08/17 02:51:34;;;;;;;3.88;1.45;;;13.30;79.30;;;;;;2058283;28;20042;-91
2021/08/17 02:52:35;;;;;;;3.45;1.42;;;13.30;79.30;;;;;;2048496;28;20041;-91
2021/08/17 02:53:36;;;;;;;4.15;1.48;;;13.30;79.30;;;;;;2058025;28;20110;-91
2021/08/17 02:54:37;;;;;;;3.17;1.20;;;13.30;79.30;;;;;;2052216;28;20086;-91
2021/08/17 02:55:38;;;;;;;4.05;1.48;;;13.30;79.30;;;;;;2049527;28;20046;-90
2021/08/17 02:56:39;;;;;;;3.58;1.40;;;13.30;79.40;;;;;;2057253;28;20062;-91
2021/08/17 02:57:49;;;;;;;2.63;0.90;;;13.30;79.40;;;;;;2042063;29;20115;-90
2021/08/17 02:58:50;;;;;;;3.05;1.30;;;13.30;79.50;;;;;;2048738;28;20516;-90
2021/08/17 02:59:51;;;;;;;4.45;1.30;;;13.30;79.50;;;;;;2041664;29;20059;-91
2021/08/17 03:00:51;;;;;;;3.20;1.33;;;13.30;79.50;;;;;;2047627;29;20039;-91
2021/08/17 03:01:52;;;;;;;3.53;1.30;;;13.30;79.60;;;;;;2048388;29;20039;-91
2021/08/17 03:02:53;;;;;;;4.43;1.50;;;13.30;79.60;;;;;;2050661;29;20035;-91
2021/08/17 03:03:53;;;;;;;4.97;1.40;;;13.30;79.60;;;;;;2049427;29;20032;-91
2021/08/17 03:04:54;;;;;;;3.78;1.30;;;13.20;79.60;;;;;;2040901;29;20040;-91
2021/08/17 03:05:54;;;;;;;2.65;1.33;;;13.20;79.70;;;;;;2040731;29;20163;-90
2021/08/17 03:06:56;;;;;;;3.38;1.42;;;13.20;79.70;;;;;;2047142;29;20043;-90
2021/08/17 03:08:03;;;;;;;2.92;1.20;;;13.20;79.80;;;;;;2041595;28;20042;-91
2021/08/17 03:09:03;;;;;;;4.47;1.30;;;13.20;79.90;;;;;;2050199;28;20568;-91
2021/08/17 03:10:05;;;;;;;3.35;1.40;;;13.20;79.90;;;;;;2048570;29;20047;-91
2021/08/17 03:11:05;;;;;;;3.65;1.55;;;13.20;80.00;;;;;;2027552;29;20051;-90
2021/08/17 03:12:07;;;;;;;3.72;1.38;;;13.20;80.10;;;;;;2033442;29;20426;-91
2021/08/17 03:13:08;;;;;;;4.00;1.50;;;13.20;80.10;;;;;;2041303;29;20032;-91
2021/08/17 03:14:09;;;;;;;3.20;1.48;;;13.20;80.20;;;;;;2049253;28;20039;-91
2021/08/17 03:15:10;;;;;;;3.58;1.33;;;13.20;80.20;;;;;;2050711;28;20513;-91
2021/08/17 03:16:11;;;;;;;4.20;1.50;;;13.20;80.30;;;;;;2055049;28;20135;-91
2021/08/17 03:17:13;;;;;;;4.07;1.38;;;13.20;80.30;;;;;;2050659;28;20411;-91
2021/08/17 03:18:14;;;;;;;3.05;1.30;;;13.20;80.30;;;;;;2058541;28;20548;-91
2021/08/17 03:19:14;;;;;;;3.90;1.38;;;13.20;80.40;;;;;;2050678;29;20118;-91
2021/08/17 03:20:17;;;;;;;5.65;1.60;;;13.20;80.40;;;;;;2042837;29;20545;-91
2021/08/17 03:21:18;;;;;;;3.63;1.63;;;13.20;80.40;;;;;;2042362;28;20513;-92
2021/08/17 03:22:18;;;;;;;5.13;1.42;;;13.20;81.00;;;;;;2050899;28;20111;-92
2021/08/17 03:23:19;;;;;;;3.72;1.40;;;13.20;80.50;;;;;;2035167;29;20048;-91
2021/08/17 03:24:20;;;;;;;3.92;1.50;;;13.20;80.50;;;;;;2025753;29;20072;-91
2021/08/17 03:25:21;;;;;;;3.58;1.50;;;13.20;80.60;;;;;;2016732;29;20025;-91
2021/08/17 03:26:22;;;;;;;2.80;1.30;;;13.20;80.60;;;;;;2032690;29;20139;-91
2021/08/17 03:27:23;;;;;;;4.13;1.30;;;13.20;80.70;;;;;;2033593;29;20036;-91
2021/08/17 03:28:24;;;;;;;5.10;1.77;;;13.20;80.70;;;;;;2048856;28;20124;-91
2021/08/17 03:29:24;;;;;;;3.53;1.38;;;13.20;80.70;;;;;;2040840;29;20040;-91
2021/08/17 03:30:26;;;;;;;2.70;1.23;;;13.20;80.70;;;;;;2041055;29;20494;-91
2021/08/17 03:31:26;;;;;;;3.38;1.50;;;13.20;80.70;;;;;;2049531;28;20031;-91
2021/08/17 03:32:27;;;;;;;4.30;1.60;;;13.20;80.80;;;;;;2056890;28;20171;-92
2021/08/17 03:33:28;;;;;;;4.43;1.50;;;13.20;80.80;;;;;;2055076;28;20031;-91
2021/08/17 03:34:28;;;;;;;2.53;1.50;;;13.20;80.90;;;;;;2044235;29;20073;-91
2021/08/17 03:35:29;;;;;;;3.88;1.60;;;13.20;80.90;;;;;;2040038;29;20042;-91
2021/08/17 03:36:30;;;;;;;3.90;1.38;;;13.20;80.90;;;;;;2049327;29;20106;-91
2021/08/17 03:37:31;;;;;;;4.20;1.50;;;13.20;80.90;;;;;;2033337;29;20035;-91
2021/08/17 03:38:33;;;;;;;4.63;1.63;;;13.20;81.00;;;;;;2049119;29;20058;-91
2021/08/17 03:39:33;;;;;;;4.30;1.75;;;13.20;81.10;;;;;;2053895;28;20033;-92
2021/08/17 03:40:34;;;;;;;3.25;1.40;;;13.20;81.10;;;;;;2052517;28;20551;-91
2021/08/17 03:41:35;;;;;;;3.80;1.60;;;13.20;81.10;;;;;;2041269;29;20034;-91
2021/08/17 03:42:37;;;;;;;4.10;1.85;;;13.20;81.20;;;;;;2056792;28;20053;-91
2021/08/17 03:43:38;;;;;;;3.38;1.40;;;13.20;81.80;;;;;;2065184;28;20026;-91
2021/08/17 03:44:39;;;;;;;3.47;1.38;;;13.20;81.20;;;;;;2040229;29;20054;-91
2021/08/17 03:45:39;;;;;;;5.18;1.42;;;13.20;81.20;;;;;;2033376;29;20040;-91
2021/08/17 03:46:40;;;;;;;3.20;1.40;;;13.20;81.20;;;;;;2033233;29;20044;-91
2021/08/17 03:47:41;;;;;;;4.22;1.60;;;13.20;81.30;;;;;;2041217;29;20039;-91
2021/08/17 03:48:42;;;;;;;3.47;1.38;;;13.30;81.20;;;;;;2034991;28;20080;-91
2021/08/17 03:49:42;;;;;;;4.90;1.48;;;13.30;81.30;;;;;;2048865;28;20194;-90
2021/08/17 03:50:43;;;;;;;4.18;1.60;;;13.30;81.40;;;;;;2050431;29;20032;-91
2021/08/17 03:51:44;;;;;;;3.63;1.40;;;13.30;81.30;;;;;;2054311;28;20051;-91
2021/08/17 03:52:45;;;;;;;4.10;1.50;;;13.30;81.30;;;;;;2037081;29;20044;-91
2021/08/17 03:53:46;;;;;;;3.90;1.40;;;13.30;81.30;;;;;;2035154;28;20044;-91
2021/08/17 03:54:46;;;;;;;3.80;1.35;;;13.30;81.40;;;;;;2056684;28;20114;-91
2021/08/17 03:55:47;;;;;;;3.45;1.48;;;13.30;81.40;;;;;;2042075;29;20047;-91
2021/08/17 03:56:48;;;;;;;3.45;1.40;;;13.30;81.30;;;;;;2034589;29;20036;-91
2021/08/17 03:57:49;;;;;;;3.45;1.48;;;13.30;81.40;;;;;;2034827;29;20066;-91
2021/08/17 03:58:50;;;;;;;2.88;1.38;;;13.30;81.40;;;;;;2049454;28;20039;-91
2021/08/17 03:59:51;;;;;;;4.03;1.40;;;13.30;81.40;;;;;;2050736;28;20046;-91
2021/08/17 04:00:51;;;;;;;3.30;1.42;;;13.40;81.50;;;;;;2042196;29;20087;-91
2021/08/17 04:01:52;;;;;;;2.92;1.35;;;13.40;81.50;;;;;;2049948;28;20043;-91
2021/08/17 04:02:54;;;;;;;2.67;1.33;;;13.40;81.50;;;;;;2050618;28;20514;-91
2021/08/17 04:03:55;;;;;;;3.88;1.77;;;13.40;81.50;;;;;;2043747;28;20066;-91
2021/08/17 04:04:55;;;;;;;4.22;1.60;;;13.40;81.50;;;;;;2042772;29;20042;-91
2021/08/17 04:05:56;;;;;;;5.30;1.63;;;13.40;81.50;;;;;;2043412;29;20046;-90
2021/08/17 04:06:57;;;;;;;4.10;1.70;;;13.40;81.60;;;;;;2034470;29;20040;-91
2021/08/17 04:07:57;;;;;;;2.63;1.20;;;13.40;81.60;;;;;;2027032;29;20211;-91
2021/08/17 04:08:58;;;;;;;2.78;1.40;;;13.40;81.60;;;;;;2041777;29;20036;-91
2021/08/17 04:09:59;;;;;;;3.25;1.42;;;13.40;81.70;;;;;;2034565;29;20056;-91
2021/08/17 04:10:59;;;;;;;3.60;1.58;;;13.40;81.70;;;;;;2040018;29;20035;-91
2021/08/17 04:12:00;;;;;;;3.47;1.48;;;13.40;81.80;;;;;;2050557;28;20095;-91
2021/08/17 04:13:02;;;;;;;4.70;1.70;;;13.40;81.80;;;;;;2050499;29;20043;-91
2021/08/17 04:14:02;;;;;;;3.03;1.70;;;13.40;81.90;;;;;;2050488;28;20146;-91
2021/08/17 04:15:05;;;;;;;3.50;1.40;;;13.40;81.90;;;;;;2066584;28;20038;-91
2021/08/17 04:16:07;;;;;;;5.10;1.52;;;13.40;82.00;;;;;;2065315;28;20037;-91
2021/08/17 04:17:07;;;;;;;3.65;1.48;;;13.40;82.00;;;;;;2050396;28;20032;-91
2021/08/17 04:18:08;;;;;;;2.95;1.55;;;13.40;82.10;;;;;;2050391;29;20043;-91
2021/08/17 04:19:09;;;;;;;3.95;1.67;;;13.50;82.20;;;;;;2054960;28;20118;-91
2021/08/17 04:20:11;;;;;;;4.05;1.63;;;13.50;82.20;;;;;;2049397;29;20123;-91
2021/08/17 04:21:12;;;;;;;4.40;1.50;;;13.50;82.20;;;;;;2058370;28;20125;-91
2021/08/17 04:22:13;;;;;;;3.72;1.70;;;13.50;82.30;;;;;;2059110;28;20039;-91
2021/08/17 04:23:13;;;;;;;3.65;1.45;;;13.50;82.30;;;;;;2048986;28;20040;-91
2021/08/17 04:24:14;;;;;;;3.65;1.63;;;13.50;82.40;;;;;;2045088;28;20083;-91
2021/08/17 04:25:15;;;;;;;4.13;1.60;;;13.50;82.40;;;;;;2043527;29;20031;-91
2021/08/17 04:26:15;;;;;;;4.75;1.60;;;13.50;82.40;;;;;;2050210;28;20043;-91
2021/08/17 04:27:16;;;;;;;3.85;1.60;;;13.60;82.40;;;;;;2045642;29;20494;-91
2021/08/17 04:28:17;;;;;;;3.75;1.63;;;13.50;82.40;;;;;;2037845;28;20061;-91
2021/08/17 04:29:18;;;;;;;2.92;1.58;;;13.60;82.50;;;;;;2048767;28;20032;-91
2021/08/17 04:30:18;;;;;;;3.63;1.80;;;13.60;82.50;;;;;;2044836;28;20445;-91
2021/08/17 04:31:19;;;;;;;4.18;1.60;;;13.60;82.50;;;;;;2034054;29;20084;-91
2021/08/17 04:32:20;;;;;;;5.57;1.80;;;13.60;82.60;;;;;;2036697;29;20119;-90
2021/08/17 04:33:21;;;;;;;4.30;1.40;;;13.60;82.60;;;;;;2050061;28;20042;-91
2021/08/17 04:34:21;;;;;;;3.17;1.65;;;13.60;82.60;;;;;;2066357;28;20042;-91
2021/08/17 04:35:22;;;;;;;4.07;1.70;;;13.60;82.60;;;;;;2054736;28;20035;-91
2021/08/17 04:36:23;;;;;;;3.08;1.60;;;13.70;82.70;;;;;;2034414;29;20051;-91
2021/08/17 04:37:24;;;;;;;4.35;1.88;;;13.70;82.70;;;;;;2033395;29;20036;-91
2021/08/17 04:38:24;;;;;;;3.75;1.80;;;13.70;82.80;;;;;;2042344;29;20546;-91
2021/08/17 04:39:25;;;;;;;4.35;1.95;;;13.70;82.80;;;;;;2042490;29;20039;-89
2021/08/17 04:40:26;;;;;;;3.58;1.50;;;13.70;82.80;;;;;;2042864;29;20043;-91
2021/08/17 04:41:26;;;;;;;3.58;1.60;;;13.70;82.80;;;;;;2039742;29;20032;-91
2021/08/17 04:42:27;;;;;;;3.92;1.73;;;13.70;82.90;;;;;;2040701;29;20047;-91
2021/08/17 04:43:28;;;;;;;4.22;1.70;;;13.70;82.90;;;;;;2050192;29;20062;-91
2021/08/17 04:44:29;;;;;;;4.00;1.60;;;13.70;82.90;;;;;;2056065;28;20031;-91
2021/08/17 04:45:29;;;;;;;3.95;1.63;;;13.70;82.90;;;;;;2057398;28;20042;-91
2021/08/17 04:46:30;;;;;;;4.20;1.90;;;13.70;82.90;;;;;;2056569;28;20039;-91
2021/08/17 04:47:31;;;;;;;3.60;1.65;;;13.70;82.90;;;;;;2049917;28;20063;-91
2021/08/17 04:48:31;;;;;;;3.85;1.63;;;13.80;83.00;;;;;;2042287;29;20036;-91
2021/08/17 04:49:32;;;;;;;3.40;1.80;;;13.80;83.00;;;;;;2043369;28;20055;-91
2021/08/17 04:50:33;;;;;;;4.65;2.08;;;13.80;83.00;;;;;;2044671;29;20036;-91
2021/08/17 04:51:34;;;;;;;4.45;1.88;;;13.80;83.00;;;;;;2042547;28;20046;-91
2021/08/17 04:52:35;;;;;;;4.10;1.90;;;13.80;83.00;;;;;;2043475;29;20476;-91
2021/08/17 04:53:37;;;;;;;4.35;1.80;;;13.80;83.00;;;;;;2045038;29;20035;-90
2021/08/17 04:54:39;;;;;;;5.13;1.77;;;13.80;83.00;;;;;;2045571;29;20043;-91
2021/08/17 04:55:40;;;;;;;4.40;2.03;;;13.80;83.00;;;;;;2035102;29;20032;-91
2021/08/17 04:56:40;;;;;;;3.80;1.92;;;13.80;83.00;;;;;;2042860;29;20091;-91
2021/08/17 04:57:48;;;;;;;2.90;1.65;;;13.90;83.10;;;;;;2043516;29;20035;-91
2021/08/17 04:58:49;;;;;;;4.75;1.80;;;13.90;83.10;;;;;;2051208;28;20054;-92
2021/08/17 04:59:49;;;;;;;4.63;1.90;;;13.90;83.10;;;;;;2042724;29;20039;-91
2021/08/17 05:00:50;;;;;;;4.25;2.00;;;13.90;83.00;;;;;;2033316;29;20052;-92
2021/08/17 05:01:51;;;;;;;4.60;2.20;;;13.90;83.00;;;;;;2034199;29;20037;-91
2021/08/17 05:02:52;;;;;;;4.70;2.00;;;13.90;83.10;;;;;;2042471;29;20035;-91
2021/08/17 05:03:52;;;;;;;3.88;2.00;;;13.90;83.00;;;;;;2050205;28;20039;-91
2021/08/17 05:04:53;;;;;;;6.18;2.05;;;13.90;83.10;;;;;;2042636;29;20035;-91
2021/08/17 05:05:54;;;;;;;4.10;1.95;;;13.90;83.10;;;;;;2038723;29;20043;-90
2021/08/17 05:06:54;;;;;;;3.83;1.70;;;13.90;83.10;;;;;;2041383;29;20198;-92
2021/08/17 05:07:55;;;;;;;6.55;2.20;;;13.90;83.10;;;;;;2034791;29;20037;-90
2021/08/17 05:08:56;;;;;;;3.78;2.17;;;13.90;83.10;;;;;;2034587;29;20119;-91
2021/08/17 05:09:58;;;;;;;4.60;2.10;;;14.00;83.10;;;;;;2042432;29;20055;-93
2021/08/17 05:10:59;;;;;;;4.20;1.90;;;14.00;83.10;;;;;;2047638;28;20051;-92
2021/08/17 05:12:00;;;;;;;4.43;2.10;;;14.00;83.10;;;;;;2041771;29;20176;-91
2021/08/17 05:13:02;;;;;;;4.00;2.10;;;13.90;83.10;;;;;;2018867;29;20041;-92
2021/08/17 05:14:03;;;;;;;6.72;3.17;;;13.90;83.10;;;;;;2035092;28;20028;-92
2021/08/17 05:15:05;;;;;;;3.40;1.88;;;14.00;83.30;;;;;;2050274;28;20036;-91
2021/08/17 05:16:06;;;;;;;5.20;2.22;;;14.00;83.30;;;;;;2050546;28;20039;-91
2021/08/17 05:17:07;;;;;;;5.57;2.13;;;14.00;83.30;;;;;;2042373;29;20203;-92
2021/08/17 05:18:07;;;;;;;4.82;2.60;;;14.00;83.30;;;;;;2039458;29;20039;-91